sensor_id;sensor_type;location;lat;lon;timestamp;P1;durP1;ratioP1;P2;durP2;ratioP2
61685;SDS011;47592;45.904;8.978;2022-12-29T00:01:45;18.55;;;12.38;;
61685;SDS011;47592;45.904;8.978;2022-12-29T00:04:11;18.08;;;12.80;;
61685;SDS011;47592;45.904;8.978;2022-12-29T00:06:38;17.65;;;11.48;;
61685;SDS011;47592;45.904;8.978;2022-12-29T00:09:03;20.55;;;13.23;;
61685;SDS011;47592;45.904;8.978;2022-12-29T00:11:30;18.38;;;12.20;;
61685;SDS011;47592;45.904;8.978;2022-12-29T00:13:56;19.13;;;12.52;;
61685;SDS011;47592;45.904;8.978;2022-12-29T00:16:40;22.17;;;13.07;;
61685;SDS011;47592;45.904;8.978;2022-12-29T00:19:07;20.20;;;13.27;;
61685;SDS011;47592;45.904;8.978;2022-12-29T00:21:53;21.30;;;12.20;;
61685;SDS011;47592;45.904;8.978;2022-12-29T00:24:37;18.95;;;12.65;;
61685;SDS011;47592;45.904;8.978;2022-12-29T00:27:21;18.90;;;13.05;;
61685;SDS011;47592;45.904;8.978;2022-12-29T00:40:15;20.48;;;12.95;;
61685;SDS011;47592;45.904;8.978;2022-12-29T00:42:59;19.67;;;13.07;;
61685;SDS011;47592;45.904;8.978;2022-12-29T00:45:43;20.40;;;12.98;;
61685;SDS011;47592;45.904;8.978;2022-12-29T00:48:09;19.42;;;12.55;;
61685;SDS011;47592;45.904;8.978;2022-12-29T00:50:34;19.38;;;12.63;;
61685;SDS011;47592;45.904;8.978;2022-12-29T00:53:00;19.45;;;12.55;;
61685;SDS011;47592;45.904;8.978;2022-12-29T00:55:25;20.73;;;12.75;;
61685;SDS011;47592;45.904;8.978;2022-12-29T00:57:51;17.50;;;12.02;;
61685;SDS011;47592;45.904;8.978;2022-12-29T01:00:16;19.40;;;12.60;;
61685;SDS011;47592;45.904;8.978;2022-12-29T01:02:41;19.38;;;13.23;;
61685;SDS011;47592;45.904;8.978;2022-12-29T01:05:08;17.45;;;12.73;;
61685;SDS011;47592;45.904;8.978;2022-12-29T01:07:33;18.77;;;13.25;;
61685;SDS011;47592;45.904;8.978;2022-12-29T01:09:59;20.90;;;12.75;;
61685;SDS011;47592;45.904;8.978;2022-12-29T01:12:36;19.05;;;12.38;;
61685;SDS011;47592;45.904;8.978;2022-12-29T01:15:11;18.88;;;12.27;;
61685;SDS011;47592;45.904;8.978;2022-12-29T01:17:37;19.88;;;12.88;;
61685;SDS011;47592;45.904;8.978;2022-12-29T01:20:03;20.38;;;13.35;;
61685;SDS011;47592;45.904;8.978;2022-12-29T01:22:29;20.67;;;14.02;;
61685;SDS011;47592;45.904;8.978;2022-12-29T01:24:55;23.88;;;14.00;;
61685;SDS011;47592;45.904;8.978;2022-12-29T01:27:20;20.88;;;13.60;;
61685;SDS011;47592;45.904;8.978;2022-12-29T01:29:46;19.15;;;12.57;;
61685;SDS011;47592;45.904;8.978;2022-12-29T01:32:11;19.95;;;13.05;;
61685;SDS011;47592;45.904;8.978;2022-12-29T01:34:36;19.75;;;13.13;;
61685;SDS011;47592;45.904;8.978;2022-12-29T01:37:02;21.02;;;13.00;;
61685;SDS011;47592;45.904;8.978;2022-12-29T01:39:27;19.63;;;12.80;;
61685;SDS011;47592;45.904;8.978;2022-12-29T01:41:53;19.48;;;12.98;;
61685;SDS011;47592;45.904;8.978;2022-12-29T01:47:30;20.35;;;13.10;;
61685;SDS011;47592;45.904;8.978;2022-12-29T01:50:28;17.30;;;12.15;;
61685;SDS011;47592;45.904;8.978;2022-12-29T01:53:02;19.98;;;14.02;;
61685;SDS011;47592;45.904;8.978;2022-12-29T01:55:31;20.30;;;13.52;;
61685;SDS011;47592;45.904;8.978;2022-12-29T01:58:01;18.92;;;12.98;;
61685;SDS011;47592;45.904;8.978;2022-12-29T02:00:29;22.15;;;13.57;;
61685;SDS011;47592;45.904;8.978;2022-12-29T02:02:55;19.10;;;13.45;;
61685;SDS011;47592;45.904;8.978;2022-12-29T02:05:34;19.25;;;13.13;;
61685;SDS011;47592;45.904;8.978;2022-12-29T02:08:10;19.45;;;12.38;;
61685;SDS011;47592;45.904;8.978;2022-12-29T02:10:36;22.17;;;14.18;;
61685;SDS011;47592;45.904;8.978;2022-12-29T02:13:02;18.55;;;13.15;;
61685;SDS011;47592;45.904;8.978;2022-12-29T02:18:07;19.02;;;12.38;;
61685;SDS011;47592;45.904;8.978;2022-12-29T02:32:21;20.58;;;13.13;;
61685;SDS011;47592;45.904;8.978;2022-12-29T02:40:48;20.35;;;12.75;;
61685;SDS011;47592;45.904;8.978;2022-12-29T02:43:42;18.85;;;12.25;;
61685;SDS011;47592;45.904;8.978;2022-12-29T02:46:19;19.10;;;12.50;;
61685;SDS011;47592;45.904;8.978;2022-12-29T02:48:54;22.20;;;12.98;;
61685;SDS011;47592;45.904;8.978;2022-12-29T02:51:34;19.75;;;13.27;;
61685;SDS011;47592;45.904;8.978;2022-12-29T02:54:22;18.92;;;11.40;;
61685;SDS011;47592;45.904;8.978;2022-12-29T02:57:12;18.02;;;11.88;;
61685;SDS011;47592;45.904;8.978;2022-12-29T02:59:48;17.35;;;10.98;;
61685;SDS011;47592;45.904;8.978;2022-12-29T03:08:31;16.05;;;10.77;;
61685;SDS011;47592;45.904;8.978;2022-12-29T03:14:08;18.20;;;11.48;;
61685;SDS011;47592;45.904;8.978;2022-12-29T03:16:59;17.02;;;11.27;;
61685;SDS011;47592;45.904;8.978;2022-12-29T03:19:34;17.60;;;12.00;;
61685;SDS011;47592;45.904;8.978;2022-12-29T03:22:02;19.45;;;11.50;;
61685;SDS011;47592;45.904;8.978;2022-12-29T03:24:48;19.83;;;11.65;;
61685;SDS011;47592;45.904;8.978;2022-12-29T03:27:18;19.23;;;12.03;;
61685;SDS011;47592;45.904;8.978;2022-12-29T03:29:46;15.70;;;10.52;;
61685;SDS011;47592;45.904;8.978;2022-12-29T03:32:18;16.95;;;10.93;;
61685;SDS011;47592;45.904;8.978;2022-12-29T03:34:44;17.27;;;11.55;;
61685;SDS011;47592;45.904;8.978;2022-12-29T03:37:11;18.52;;;11.30;;
61685;SDS011;47592;45.904;8.978;2022-12-29T03:39:38;18.02;;;11.75;;
61685;SDS011;47592;45.904;8.978;2022-12-29T03:42:09;17.98;;;11.30;;
61685;SDS011;47592;45.904;8.978;2022-12-29T03:44:39;18.23;;;11.57;;
61685;SDS011;47592;45.904;8.978;2022-12-29T03:47:06;17.95;;;11.18;;
61685;SDS011;47592;45.904;8.978;2022-12-29T03:49:32;18.65;;;11.57;;
61685;SDS011;47592;45.904;8.978;2022-12-29T03:51:57;18.45;;;11.40;;
61685;SDS011;47592;45.904;8.978;2022-12-29T03:54:23;17.55;;;11.10;;
61685;SDS011;47592;45.904;8.978;2022-12-29T03:56:49;16.13;;;10.93;;
61685;SDS011;47592;45.904;8.978;2022-12-29T03:59:14;16.85;;;11.02;;
61685;SDS011;47592;45.904;8.978;2022-12-29T04:01:39;17.00;;;10.98;;
61685;SDS011;47592;45.904;8.978;2022-12-29T04:04:05;16.33;;;10.88;;
61685;SDS011;47592;45.904;8.978;2022-12-29T04:06:30;19.38;;;12.13;;
61685;SDS011;47592;45.904;8.978;2022-12-29T04:08:56;15.23;;;10.75;;
61685;SDS011;47592;45.904;8.978;2022-12-29T04:11:21;16.80;;;10.85;;
61685;SDS011;47592;45.904;8.978;2022-12-29T04:13:47;16.20;;;10.65;;
61685;SDS011;47592;45.904;8.978;2022-12-29T04:16:13;16.80;;;11.13;;
61685;SDS011;47592;45.904;8.978;2022-12-29T04:18:38;17.55;;;10.60;;
61685;SDS011;47592;45.904;8.978;2022-12-29T04:21:04;17.48;;;10.60;;
61685;SDS011;47592;45.904;8.978;2022-12-29T04:23:30;17.02;;;11.10;;
61685;SDS011;47592;45.904;8.978;2022-12-29T04:25:57;17.80;;;11.10;;
61685;SDS011;47592;45.904;8.978;2022-12-29T04:28:23;17.40;;;11.07;;
61685;SDS011;47592;45.904;8.978;2022-12-29T04:30:48;17.40;;;10.60;;
61685;SDS011;47592;45.904;8.978;2022-12-29T04:33:14;17.92;;;11.30;;
61685;SDS011;47592;45.904;8.978;2022-12-29T04:35:39;17.13;;;10.77;;
61685;SDS011;47592;45.904;8.978;2022-12-29T04:38:05;15.18;;;10.85;;
61685;SDS011;47592;45.904;8.978;2022-12-29T04:40:30;17.13;;;11.15;;
61685;SDS011;47592;45.904;8.978;2022-12-29T04:42:56;15.07;;;9.93;;
61685;SDS011;47592;45.904;8.978;2022-12-29T04:45:21;17.70;;;11.00;;
61685;SDS011;47592;45.904;8.978;2022-12-29T04:47:47;15.52;;;10.45;;
61685;SDS011;47592;45.904;8.978;2022-12-29T04:50:12;16.52;;;10.68;;
61685;SDS011;47592;45.904;8.978;2022-12-29T04:52:38;15.70;;;11.02;;
61685;SDS011;47592;45.904;8.978;2022-12-29T04:55:04;17.42;;;10.77;;
61685;SDS011;47592;45.904;8.978;2022-12-29T04:57:30;16.33;;;10.73;;
61685;SDS011;47592;45.904;8.978;2022-12-29T04:59:56;16.00;;;10.63;;
61685;SDS011;47592;45.904;8.978;2022-12-29T05:02:21;15.73;;;10.77;;
61685;SDS011;47592;45.904;8.978;2022-12-29T05:04:46;15.50;;;10.45;;
61685;SDS011;47592;45.904;8.978;2022-12-29T05:07:12;15.63;;;10.98;;
61685;SDS011;47592;45.904;8.978;2022-12-29T05:09:38;17.70;;;10.73;;
61685;SDS011;47592;45.904;8.978;2022-12-29T05:12:03;17.98;;;11.75;;
61685;SDS011;47592;45.904;8.978;2022-12-29T05:14:29;16.67;;;11.00;;
61685;SDS011;47592;45.904;8.978;2022-12-29T05:16:55;14.68;;;10.35;;
61685;SDS011;47592;45.904;8.978;2022-12-29T05:19:20;17.52;;;11.10;;
61685;SDS011;47592;45.904;8.978;2022-12-29T05:21:46;16.70;;;11.02;;
61685;SDS011;47592;45.904;8.978;2022-12-29T05:24:11;16.67;;;10.70;;
61685;SDS011;47592;45.904;8.978;2022-12-29T05:26:36;15.02;;;10.43;;
61685;SDS011;47592;45.904;8.978;2022-12-29T05:29:03;15.65;;;10.60;;
61685;SDS011;47592;45.904;8.978;2022-12-29T05:31:29;17.25;;;10.50;;
61685;SDS011;47592;45.904;8.978;2022-12-29T05:33:54;16.80;;;10.23;;
61685;SDS011;47592;45.904;8.978;2022-12-29T05:36:19;17.77;;;11.00;;
61685;SDS011;47592;45.904;8.978;2022-12-29T05:38:45;17.25;;;10.38;;
61685;SDS011;47592;45.904;8.978;2022-12-29T05:41:10;17.77;;;10.23;;
61685;SDS011;47592;45.904;8.978;2022-12-29T05:43:36;16.05;;;10.57;;
61685;SDS011;47592;45.904;8.978;2022-12-29T05:46:02;18.55;;;9.95;;
61685;SDS011;47592;45.904;8.978;2022-12-29T05:48:28;17.85;;;10.40;;
61685;SDS011;47592;45.904;8.978;2022-12-29T05:50:53;15.27;;;10.35;;
61685;SDS011;47592;45.904;8.978;2022-12-29T05:53:18;17.88;;;10.48;;
61685;SDS011;47592;45.904;8.978;2022-12-29T05:55:45;16.45;;;10.20;;
61685;SDS011;47592;45.904;8.978;2022-12-29T05:58:12;14.43;;;9.43;;
61685;SDS011;47592;45.904;8.978;2022-12-29T06:00:38;14.40;;;9.82;;
61685;SDS011;47592;45.904;8.978;2022-12-29T06:03:03;16.08;;;10.27;;
61685;SDS011;47592;45.904;8.978;2022-12-29T06:05:29;15.80;;;10.07;;
61685;SDS011;47592;45.904;8.978;2022-12-29T06:07:54;15.60;;;9.68;;
61685;SDS011;47592;45.904;8.978;2022-12-29T06:10:20;15.88;;;9.68;;
61685;SDS011;47592;45.904;8.978;2022-12-29T06:12:46;15.35;;;9.57;;
61685;SDS011;47592;45.904;8.978;2022-12-29T06:15:12;14.50;;;9.73;;
61685;SDS011;47592;45.904;8.978;2022-12-29T06:17:37;15.80;;;9.40;;
61685;SDS011;47592;45.904;8.978;2022-12-29T06:20:03;15.77;;;9.50;;
61685;SDS011;47592;45.904;8.978;2022-12-29T06:22:28;16.13;;;9.68;;
61685;SDS011;47592;45.904;8.978;2022-12-29T06:24:54;13.70;;;9.38;;
61685;SDS011;47592;45.904;8.978;2022-12-29T06:27:19;16.30;;;9.40;;
61685;SDS011;47592;45.904;8.978;2022-12-29T06:29:45;15.40;;;10.10;;
61685;SDS011;47592;45.904;8.978;2022-12-29T06:32:11;15.27;;;9.23;;
61685;SDS011;47592;45.904;8.978;2022-12-29T06:34:36;14.85;;;9.32;;
61685;SDS011;47592;45.904;8.978;2022-12-29T06:37:02;13.57;;;9.15;;
61685;SDS011;47592;45.904;8.978;2022-12-29T06:39:28;13.73;;;9.55;;
61685;SDS011;47592;45.904;8.978;2022-12-29T06:41:53;15.32;;;9.80;;
61685;SDS011;47592;45.904;8.978;2022-12-29T06:44:20;14.85;;;9.52;;
61685;SDS011;47592;45.904;8.978;2022-12-29T06:46:46;15.40;;;9.55;;
61685;SDS011;47592;45.904;8.978;2022-12-29T06:49:11;16.70;;;10.07;;
61685;SDS011;47592;45.904;8.978;2022-12-29T06:51:37;16.35;;;9.63;;
61685;SDS011;47592;45.904;8.978;2022-12-29T06:54:02;15.27;;;10.05;;
61685;SDS011;47592;45.904;8.978;2022-12-29T06:56:28;14.52;;;8.82;;
61685;SDS011;47592;45.904;8.978;2022-12-29T06:58:53;12.70;;;8.93;;
61685;SDS011;47592;45.904;8.978;2022-12-29T07:01:19;15.30;;;10.27;;
61685;SDS011;47592;45.904;8.978;2022-12-29T07:03:44;17.20;;;9.40;;
61685;SDS011;47592;45.904;8.978;2022-12-29T07:06:10;16.52;;;10.30;;
61685;SDS011;47592;45.904;8.978;2022-12-29T07:08:35;15.40;;;9.38;;
61685;SDS011;47592;45.904;8.978;2022-12-29T07:11:01;14.73;;;9.63;;
61685;SDS011;47592;45.904;8.978;2022-12-29T07:13:26;14.85;;;9.95;;
61685;SDS011;47592;45.904;8.978;2022-12-29T07:15:52;17.10;;;9.82;;
61685;SDS011;47592;45.904;8.978;2022-12-29T07:18:17;15.63;;;9.38;;
61685;SDS011;47592;45.904;8.978;2022-12-29T07:20:43;17.27;;;9.88;;
61685;SDS011;47592;45.904;8.978;2022-12-29T07:23:08;15.50;;;9.38;;
61685;SDS011;47592;45.904;8.978;2022-12-29T07:25:34;16.10;;;9.57;;
61685;SDS011;47592;45.904;8.978;2022-12-29T07:28:00;14.45;;;9.40;;
61685;SDS011;47592;45.904;8.978;2022-12-29T07:30:26;12.93;;;8.68;;
61685;SDS011;47592;45.904;8.978;2022-12-29T07:32:52;14.82;;;8.40;;
61685;SDS011;47592;45.904;8.978;2022-12-29T07:35:17;14.00;;;8.75;;
61685;SDS011;47592;45.904;8.978;2022-12-29T07:37:43;14.73;;;8.93;;
61685;SDS011;47592;45.904;8.978;2022-12-29T07:40:09;14.50;;;8.63;;
61685;SDS011;47592;45.904;8.978;2022-12-29T07:42:34;16.13;;;9.15;;
61685;SDS011;47592;45.904;8.978;2022-12-29T07:45:00;15.35;;;8.50;;
61685;SDS011;47592;45.904;8.978;2022-12-29T07:47:26;15.82;;;8.98;;
61685;SDS011;47592;45.904;8.978;2022-12-29T07:49:52;13.30;;;8.27;;
61685;SDS011;47592;45.904;8.978;2022-12-29T07:52:17;13.15;;;8.20;;
61685;SDS011;47592;45.904;8.978;2022-12-29T07:54:43;14.05;;;8.35;;
61685;SDS011;47592;45.904;8.978;2022-12-29T07:57:08;13.57;;;8.32;;
61685;SDS011;47592;45.904;8.978;2022-12-29T07:59:34;13.05;;;8.90;;
61685;SDS011;47592;45.904;8.978;2022-12-29T08:01:59;13.50;;;8.90;;
61685;SDS011;47592;45.904;8.978;2022-12-29T08:04:25;15.85;;;8.38;;
61685;SDS011;47592;45.904;8.978;2022-12-29T08:06:51;14.93;;;8.73;;
61685;SDS011;47592;45.904;8.978;2022-12-29T08:09:16;15.95;;;8.57;;
61685;SDS011;47592;45.904;8.978;2022-12-29T08:11:42;12.65;;;8.38;;
61685;SDS011;47592;45.904;8.978;2022-12-29T08:14:11;13.52;;;7.82;;
61685;SDS011;47592;45.904;8.978;2022-12-29T08:16:36;12.95;;;8.38;;
61685;SDS011;47592;45.904;8.978;2022-12-29T08:19:01;13.40;;;8.02;;
61685;SDS011;47592;45.904;8.978;2022-12-29T08:21:28;14.95;;;8.45;;
61685;SDS011;47592;45.904;8.978;2022-12-29T08:23:54;13.15;;;7.82;;
61685;SDS011;47592;45.904;8.978;2022-12-29T08:26:20;13.85;;;7.82;;
61685;SDS011;47592;45.904;8.978;2022-12-29T08:28:46;12.20;;;7.07;;
61685;SDS011;47592;45.904;8.978;2022-12-29T08:31:12;12.35;;;7.15;;
61685;SDS011;47592;45.904;8.978;2022-12-29T08:33:37;11.63;;;7.28;;
61685;SDS011;47592;45.904;8.978;2022-12-29T08:36:03;14.60;;;7.93;;
61685;SDS011;47592;45.904;8.978;2022-12-29T08:38:30;14.13;;;7.70;;
61685;SDS011;47592;45.904;8.978;2022-12-29T08:40:56;13.45;;;7.18;;
61685;SDS011;47592;45.904;8.978;2022-12-29T08:43:22;14.88;;;7.30;;
61685;SDS011;47592;45.904;8.978;2022-12-29T08:45:47;13.73;;;7.68;;
61685;SDS011;47592;45.904;8.978;2022-12-29T08:48:13;13.77;;;7.88;;
61685;SDS011;47592;45.904;8.978;2022-12-29T08:50:42;12.23;;;7.70;;
61685;SDS011;47592;45.904;8.978;2022-12-29T08:53:08;12.00;;;7.22;;
61685;SDS011;47592;45.904;8.978;2022-12-29T08:55:33;12.93;;;7.45;;
61685;SDS011;47592;45.904;8.978;2022-12-29T08:57:59;12.63;;;7.60;;
61685;SDS011;47592;45.904;8.978;2022-12-29T09:00:24;16.17;;;7.63;;
61685;SDS011;47592;45.904;8.978;2022-12-29T09:02:50;14.02;;;7.47;;
61685;SDS011;47592;45.904;8.978;2022-12-29T09:05:16;12.80;;;7.65;;
61685;SDS011;47592;45.904;8.978;2022-12-29T09:07:41;13.52;;;8.95;;
61685;SDS011;47592;45.904;8.978;2022-12-29T09:10:07;14.52;;;8.23;;
61685;SDS011;47592;45.904;8.978;2022-12-29T09:12:33;15.45;;;9.77;;
61685;SDS011;47592;45.904;8.978;2022-12-29T09:14:58;14.73;;;9.25;;
61685;SDS011;47592;45.904;8.978;2022-12-29T09:17:24;15.57;;;9.82;;
61685;SDS011;47592;45.904;8.978;2022-12-29T09:20:15;14.10;;;9.23;;
61685;SDS011;47592;45.904;8.978;2022-12-29T09:22:42;14.40;;;9.48;;
61685;SDS011;47592;45.904;8.978;2022-12-29T09:25:08;14.48;;;9.27;;
61685;SDS011;47592;45.904;8.978;2022-12-29T09:27:34;14.13;;;9.35;;
61685;SDS011;47592;45.904;8.978;2022-12-29T09:30:00;15.27;;;9.77;;
61685;SDS011;47592;45.904;8.978;2022-12-29T09:32:26;20.67;;;11.70;;
61685;SDS011;47592;45.904;8.978;2022-12-29T09:34:51;16.00;;;10.23;;
61685;SDS011;47592;45.904;8.978;2022-12-29T09:37:17;15.52;;;9.80;;
61685;SDS011;47592;45.904;8.978;2022-12-29T09:39:42;17.60;;;9.15;;
61685;SDS011;47592;45.904;8.978;2022-12-29T09:42:08;16.48;;;9.65;;
61685;SDS011;47592;45.904;8.978;2022-12-29T09:47:11;12.60;;;8.43;;
61685;SDS011;47592;45.904;8.978;2022-12-29T09:52:25;13.65;;;8.38;;
61685;SDS011;47592;45.904;8.978;2022-12-29T09:55:04;13.18;;;8.27;;
61685;SDS011;47592;45.904;8.978;2022-12-29T09:57:35;13.60;;;7.60;;
61685;SDS011;47592;45.904;8.978;2022-12-29T10:00:05;14.88;;;9.13;;
61685;SDS011;47592;45.904;8.978;2022-12-29T10:05:13;14.88;;;8.90;;
61685;SDS011;47592;45.904;8.978;2022-12-29T10:10:30;11.35;;;7.82;;
61685;SDS011;47592;45.904;8.978;2022-12-29T10:15:46;15.05;;;7.32;;
61685;SDS011;47592;45.904;8.978;2022-12-29T10:18:30;11.75;;;7.55;;
61685;SDS011;47592;45.904;8.978;2022-12-29T10:23:53;12.90;;;7.22;;
61685;SDS011;47592;45.904;8.978;2022-12-29T10:26:30;11.68;;;7.32;;
61685;SDS011;47592;45.904;8.978;2022-12-29T10:29:02;12.07;;;7.90;;
61685;SDS011;47592;45.904;8.978;2022-12-29T10:31:48;12.75;;;7.57;;
61685;SDS011;47592;45.904;8.978;2022-12-29T10:36:48;11.57;;;7.60;;
61685;SDS011;47592;45.904;8.978;2022-12-29T10:41:51;12.50;;;7.38;;
61685;SDS011;47592;45.904;8.978;2022-12-29T10:44:21;12.38;;;7.57;;
61685;SDS011;47592;45.904;8.978;2022-12-29T10:46:59;11.00;;;6.65;;
61685;SDS011;47592;45.904;8.978;2022-12-29T10:49:29;15.55;;;6.40;;
61685;SDS011;47592;45.904;8.978;2022-12-29T10:51:57;12.55;;;6.53;;
61685;SDS011;47592;45.904;8.978;2022-12-29T10:57:02;11.82;;;6.75;;
61685;SDS011;47592;45.904;8.978;2022-12-29T10:59:30;11.15;;;6.60;;
61685;SDS011;47592;45.904;8.978;2022-12-29T11:04:43;12.32;;;6.82;;
61685;SDS011;47592;45.904;8.978;2022-12-29T11:07:11;10.95;;;6.97;;
61685;SDS011;47592;45.904;8.978;2022-12-29T11:09:38;11.65;;;6.93;;
61685;SDS011;47592;45.904;8.978;2022-12-29T11:12:18;11.43;;;7.15;;
61685;SDS011;47592;45.904;8.978;2022-12-29T11:15:02;11.60;;;6.88;;
61685;SDS011;47592;45.904;8.978;2022-12-29T11:17:30;10.55;;;6.40;;
61685;SDS011;47592;45.904;8.978;2022-12-29T11:22:53;16.60;;;7.13;;
61685;SDS011;47592;45.904;8.978;2022-12-29T11:25:19;13.77;;;6.95;;
61685;SDS011;47592;45.904;8.978;2022-12-29T11:30:42;11.82;;;6.90;;
61685;SDS011;47592;45.904;8.978;2022-12-29T11:33:08;12.45;;;7.30;;
61685;SDS011;47592;45.904;8.978;2022-12-29T11:35:38;12.18;;;7.30;;
61685;SDS011;47592;45.904;8.978;2022-12-29T11:38:21;13.33;;;7.40;;
61685;SDS011;47592;45.904;8.978;2022-12-29T11:40:48;14.35;;;7.22;;
61685;SDS011;47592;45.904;8.978;2022-12-29T11:43:23;11.07;;;6.43;;
61685;SDS011;47592;45.904;8.978;2022-12-29T11:45:49;11.52;;;6.80;;
61685;SDS011;47592;45.904;8.978;2022-12-29T11:48:18;11.70;;;7.10;;
61685;SDS011;47592;45.904;8.978;2022-12-29T11:50:55;10.50;;;6.93;;
61685;SDS011;47592;45.904;8.978;2022-12-29T11:53:25;10.25;;;6.50;;
61685;SDS011;47592;45.904;8.978;2022-12-29T11:55:56;11.57;;;8.07;;
61685;SDS011;47592;45.904;8.978;2022-12-29T11:58:28;12.57;;;7.18;;
61685;SDS011;47592;45.904;8.978;2022-12-29T12:01:06;9.60;;;6.50;;
61685;SDS011;47592;45.904;8.978;2022-12-29T12:03:38;11.05;;;6.88;;
61685;SDS011;47592;45.904;8.978;2022-12-29T12:06:10;12.27;;;6.72;;
61685;SDS011;47592;45.904;8.978;2022-12-29T12:11:09;11.27;;;6.63;;
61685;SDS011;47592;45.904;8.978;2022-12-29T12:16:15;10.95;;;7.15;;
61685;SDS011;47592;45.904;8.978;2022-12-29T12:18:47;12.13;;;6.68;;
61685;SDS011;47592;45.904;8.978;2022-12-29T12:21:31;12.25;;;7.75;;
61685;SDS011;47592;45.904;8.978;2022-12-29T12:29:39;13.23;;;7.50;;
61685;SDS011;47592;45.904;8.978;2022-12-29T12:32:20;14.45;;;7.32;;
61685;SDS011;47592;45.904;8.978;2022-12-29T12:34:48;11.95;;;7.18;;
61685;SDS011;47592;45.904;8.978;2022-12-29T12:40:18;14.68;;;7.90;;
61685;SDS011;47592;45.904;8.978;2022-12-29T12:43:02;12.32;;;7.30;;
61685;SDS011;47592;45.904;8.978;2022-12-29T13:02:01;12.55;;;7.35;;
61685;SDS011;47592;45.904;8.978;2022-12-29T13:04:48;17.75;;;7.90;;
61685;SDS011;47592;45.904;8.978;2022-12-29T13:10:28;11.57;;;7.18;;
61685;SDS011;47592;45.904;8.978;2022-12-29T13:21:00;12.57;;;7.22;;
61685;SDS011;47592;45.904;8.978;2022-12-29T13:23:34;12.13;;;7.03;;
61685;SDS011;47592;45.904;8.978;2022-12-29T13:26:17;13.15;;;7.13;;
61685;SDS011;47592;45.904;8.978;2022-12-29T13:36:56;11.07;;;6.65;;
61685;SDS011;47592;45.904;8.978;2022-12-29T13:39:32;11.13;;;6.78;;
61685;SDS011;47592;45.904;8.978;2022-12-29T13:42:06;12.00;;;7.25;;
61685;SDS011;47592;45.904;8.978;2022-12-29T13:44:39;12.40;;;7.60;;
61685;SDS011;47592;45.904;8.978;2022-12-29T13:47:28;10.32;;;6.78;;
61685;SDS011;47592;45.904;8.978;2022-12-29T13:49:56;12.85;;;7.18;;
61685;SDS011;47592;45.904;8.978;2022-12-29T13:52:32;11.10;;;6.20;;
61685;SDS011;47592;45.904;8.978;2022-12-29T13:55:07;13.40;;;6.38;;
61685;SDS011;47592;45.904;8.978;2022-12-29T13:57:55;10.82;;;6.40;;
61685;SDS011;47592;45.904;8.978;2022-12-29T14:00:26;10.25;;;6.40;;
61685;SDS011;47592;45.904;8.978;2022-12-29T14:06:02;9.70;;;5.53;;
61685;SDS011;47592;45.904;8.978;2022-12-29T14:08:30;9.30;;;5.53;;
61685;SDS011;47592;45.904;8.978;2022-12-29T14:11:08;11.48;;;5.75;;
61685;SDS011;47592;45.904;8.978;2022-12-29T14:13:37;9.57;;;5.70;;
61685;SDS011;47592;45.904;8.978;2022-12-29T14:16:04;14.65;;;6.20;;
61685;SDS011;47592;45.904;8.978;2022-12-29T14:18:31;9.25;;;5.32;;
61685;SDS011;47592;45.904;8.978;2022-12-29T14:21:17;10.45;;;6.07;;
61685;SDS011;47592;45.904;8.978;2022-12-29T14:23:45;10.40;;;5.45;;
61685;SDS011;47592;45.904;8.978;2022-12-29T14:28:47;10.27;;;5.68;;
61685;SDS011;47592;45.904;8.978;2022-12-29T14:34:28;10.55;;;6.25;;
61685;SDS011;47592;45.904;8.978;2022-12-29T14:36:37;11.88;;;6.32;;
61685;SDS011;47592;45.904;8.978;2022-12-29T14:39:18;11.05;;;6.38;;
61685;SDS011;47592;45.904;8.978;2022-12-29T14:44:46;10.48;;;6.60;;
61685;SDS011;47592;45.904;8.978;2022-12-29T14:52:52;11.50;;;6.30;;
61685;SDS011;47592;45.904;8.978;2022-12-29T14:57:57;11.52;;;7.28;;
61685;SDS011;47592;45.904;8.978;2022-12-29T15:00:33;11.38;;;7.13;;
61685;SDS011;47592;45.904;8.978;2022-12-29T15:03:02;10.27;;;6.18;;
61685;SDS011;47592;45.904;8.978;2022-12-29T15:05:38;12.68;;;7.10;;
61685;SDS011;47592;45.904;8.978;2022-12-29T15:08:12;9.45;;;6.45;;
61685;SDS011;47592;45.904;8.978;2022-12-29T15:10:40;10.73;;;7.28;;
61685;SDS011;47592;45.904;8.978;2022-12-29T15:13:16;12.13;;;6.95;;
61685;SDS011;47592;45.904;8.978;2022-12-29T15:15:45;11.70;;;7.18;;
61685;SDS011;47592;45.904;8.978;2022-12-29T15:18:20;11.10;;;7.13;;
61685;SDS011;47592;45.904;8.978;2022-12-29T15:20:49;11.27;;;6.90;;
61685;SDS011;47592;45.904;8.978;2022-12-29T15:23:17;13.35;;;7.85;;
61685;SDS011;47592;45.904;8.978;2022-12-29T15:25:46;13.93;;;8.63;;
61685;SDS011;47592;45.904;8.978;2022-12-29T15:28:14;13.63;;;7.80;;
61685;SDS011;47592;45.904;8.978;2022-12-29T15:30:52;12.80;;;7.82;;
61685;SDS011;47592;45.904;8.978;2022-12-29T15:33:27;14.43;;;7.95;;
61685;SDS011;47592;45.904;8.978;2022-12-29T15:35:54;11.60;;;7.85;;
61685;SDS011;47592;45.904;8.978;2022-12-29T15:38:25;13.80;;;8.15;;
61685;SDS011;47592;45.904;8.978;2022-12-29T15:40:58;15.30;;;7.43;;
61685;SDS011;47592;45.904;8.978;2022-12-29T15:46:38;13.93;;;8.77;;
61685;SDS011;47592;45.904;8.978;2022-12-29T15:49:04;13.25;;;8.60;;
61685;SDS011;47592;45.904;8.978;2022-12-29T15:51:36;13.95;;;9.18;;
61685;SDS011;47592;45.904;8.978;2022-12-29T15:54:03;16.35;;;8.52;;
61685;SDS011;47592;45.904;8.978;2022-12-29T15:56:29;14.68;;;8.18;;
61685;SDS011;47592;45.904;8.978;2022-12-29T15:58:55;16.85;;;10.10;;
61685;SDS011;47592;45.904;8.978;2022-12-29T16:01:30;15.27;;;9.25;;
61685;SDS011;47592;45.904;8.978;2022-12-29T16:03:58;15.27;;;9.30;;
61685;SDS011;47592;45.904;8.978;2022-12-29T16:09:03;18.95;;;10.23;;
61685;SDS011;47592;45.904;8.978;2022-12-29T16:11:32;16.83;;;10.25;;
61685;SDS011;47592;45.904;8.978;2022-12-29T16:13:59;16.98;;;9.98;;
61685;SDS011;47592;45.904;8.978;2022-12-29T16:16:31;17.40;;;10.43;;
61685;SDS011;47592;45.904;8.978;2022-12-29T16:19:02;18.73;;;10.50;;
61685;SDS011;47592;45.904;8.978;2022-12-29T16:21:34;19.20;;;10.40;;
61685;SDS011;47592;45.904;8.978;2022-12-29T16:24:02;15.07;;;9.52;;
61685;SDS011;47592;45.904;8.978;2022-12-29T16:26:30;15.73;;;10.27;;
61685;SDS011;47592;45.904;8.978;2022-12-29T16:29:00;20.35;;;10.90;;
61685;SDS011;47592;45.904;8.978;2022-12-29T16:32:28;17.25;;;10.55;;
61685;SDS011;47592;45.904;8.978;2022-12-29T16:36:56;19.23;;;12.45;;
61685;SDS011;47592;45.904;8.978;2022-12-29T16:39:29;20.98;;;12.73;;
61685;SDS011;47592;45.904;8.978;2022-12-29T16:41:57;20.50;;;12.60;;
61685;SDS011;47592;45.904;8.978;2022-12-29T16:44:24;25.83;;;13.95;;
61685;SDS011;47592;45.904;8.978;2022-12-29T16:49:24;22.92;;;15.07;;
61685;SDS011;47592;45.904;8.978;2022-12-29T16:51:51;23.15;;;15.38;;
61685;SDS011;47592;45.904;8.978;2022-12-29T16:54:20;26.23;;;16.52;;
61685;SDS011;47592;45.904;8.978;2022-12-29T16:56:48;27.13;;;16.35;;
61685;SDS011;47592;45.904;8.978;2022-12-29T17:02:15;29.45;;;19.92;;
61685;SDS011;47592;45.904;8.978;2022-12-29T17:04:41;31.15;;;20.10;;
61685;SDS011;47592;45.904;8.978;2022-12-29T17:07:17;31.40;;;20.58;;
61685;SDS011;47592;45.904;8.978;2022-12-29T17:09:47;29.55;;;19.90;;
61685;SDS011;47592;45.904;8.978;2022-12-29T17:12:17;30.77;;;20.75;;
61685;SDS011;47592;45.904;8.978;2022-12-29T17:14:46;27.85;;;19.25;;
61685;SDS011;47592;45.904;8.978;2022-12-29T17:19:44;28.48;;;19.30;;
61685;SDS011;47592;45.904;8.978;2022-12-29T17:22:13;27.15;;;18.95;;